Thursday, June 21, 2018, 12:10 PM EDT
Back to Local

KHFD, Hartford-brainard Airport

Location: Hartford, CT, United States Lat: 41.733
Local Time: 12:10 PM EDT (16:10 GMT) Lon: -72.65
Time Zone: US/Eastern Elev: 19 ft

Show me the last for .
Show Coded

Time T Td Feel RH Dir Speed Gust Alt SLP Vis Weather Sky Remarks
2018-06-21 11:53 80 59 81 48 10° 6 - 29.77 29.77 10 CLR None
2018-06-21 10:53 78 60 80 54 20° 8 - 29.78 29.77 10 CLR None
2018-06-21 09:53 75 56 77 51 20° 8 - 29.77 29.77 10 CLR None
2018-06-21 08:53 73 60 77 63 10° 7 - 29.78 29.77 10 SCT021 BKN150 None
2018-06-21 07:53 71 63 76 75 - Calm - 29.76 29.76 10 SCT021 6-hr Min Temp (8am): 68.0°F
6-hr Max Temp (8am): 71.1°F
2018-06-21 06:53 70 63 - 78 210° 3 - 29.76 29.76 10 SCT110 BKN250 None
2018-06-21 05:53 68 63 - 83 200° 5 - 29.75 29.75 10 SCT120 BKN250 None
2018-06-21 04:53 68 62 - 81 180° 5 - 29.75 29.75 10 OVC080 None
2018-06-21 03:53 69 60 - 73 200° 5 - 29.74 29.74 10 OVC095 None
2018-06-21 02:53 70 62 - 76 180° 5 - 29.75 29.75 10 OVC100 None
2018-06-21 01:53 68 63 - 83 180° 5 - 29.77 29.76 10 BKN110 6-hr Min Temp (2am): 66.9°F
6-hr Max Temp (2am): 77.0°F
2018-06-21 00:53 70 61 - 73 - Calm - 29.77 29.77 10 CLR 24-hr Min Temp (1am): 57.9°F
24-hr Max Temp (1am): 84.0°F
2018-06-20 23:53 70 61 - 73 170° 3 - 29.77 29.77 10 CLR None
2018-06-20 22:53 71 59 76 65 170° 5 - 29.78 29.78 10 BKN120 None
2018-06-20 21:53 73 57 77 57 Variable 3 - 29.78 29.78 10 BKN110 None
2018-06-20 20:53 75 58 78 55 200° 7 - 29.77 29.77 10 CLR None
2018-06-20 19:53 77 58 79 51 200° 7 - 29.77 29.77 10 CLR 6-hr Min Temp (8pm): 77.0°F
6-hr Max Temp (8pm): 84.0°F
2018-06-20 18:53 78 57 79 48 200° 7 - 29.76 29.76 10 BKN110 None
2018-06-20 17:53 79 56 80 45 200° 7 - 29.77 29.77 10 CLR None
2018-06-20 16:53 82 55 - 39 250° 6 - 29.79 29.78 10 CLR None
2018-06-20 15:53 83 53 - 35 300° 9 - 29.80 29.80 10 FEW065 None
2018-06-20 14:53 81 54 - 39 220° 7 - 29.81 29.81 10 CLR None
2018-06-20 13:53 80 54 80 40 210° 9 - 29.83 29.82 10 CLR 6-hr Min Temp (2pm): 64.9°F
6-hr Max Temp (2pm): 80.1°F
2018-06-20 12:53 79 53 79 40 Variable 5 - 29.85 29.85 10 CLR None

Support USWX by starting your Amazon purchase here.